Time;durP1;ratioP1;P1;durP2;ratioP2;P2;SDS_P1;SDS_P2;PMS_P1;PMS_P2;Temp;Humidity;BMP_temperature;BMP_pressure;BME280_temperature;BME280_humidity;BME280_pressure;Samples;Min_cycle;Max_cycle;Signal;HPM_P1;HPM_P2
2021/01/18 00:00:15;;;;;;;30.33;12.95;;;-4.60;99.90;;;;;;4957690;28;20134;-74
2021/01/18 00:02:42;;;;;;;33.80;14.02;;;-4.60;99.90;;;;;;4957121;28;20043;-74
2021/01/18 00:05:08;;;;;;;31.33;13.43;;;-4.70;99.90;;;;;;4960459;28;20101;-76
2021/01/18 00:07:46;;;;;;;43.25;18.67;;;-4.70;99.90;;;;;;4951601;28;20214;-72
2021/01/18 00:10:18;;;;;;;29.08;12.80;;;-4.70;99.90;;;;;;4956165;28;20039;-74
2021/01/18 00:12:45;;;;;;;33.85;13.48;;;-4.70;99.90;;;;;;4947793;28;20128;-74
2021/01/18 00:15:11;;;;;;;30.48;12.80;;;-4.70;99.90;;;;;;4950009;28;20038;-74
2021/01/18 00:17:37;;;;;;;31.77;13.93;;;-4.80;99.90;;;;;;4964873;28;20031;-76
2021/01/18 00:20:03;;;;;;;31.77;13.15;;;-4.80;99.90;;;;;;4958784;28;20049;-75
2021/01/18 00:22:29;;;;;;;31.10;14.18;;;-4.80;99.90;;;;;;4956489;28;20038;-75
2021/01/18 00:24:55;;;;;;;32.97;13.27;;;-4.80;99.90;;;;;;4953526;28;20035;-75
2021/01/18 00:27:20;;;;;;;36.47;14.15;;;-4.80;99.90;;;;;;4952264;28;20745;-75
2021/01/18 00:29:48;;;;;;;36.35;14.70;;;-4.80;99.90;;;;;;4960053;28;20664;-75
2021/01/18 00:32:18;;;;;;;38.20;15.18;;;-4.80;99.90;;;;;;4961652;28;20045;-76
2021/01/18 00:34:47;;;;;;;34.10;14.05;;;-4.80;99.90;;;;;;4971384;28;20030;-85
2021/01/18 00:37:13;;;;;;;34.92;14.77;;;-4.80;99.90;;;;;;4956975;28;20084;-75
2021/01/18 00:39:38;;;;;;;33.25;14.27;;;-4.80;99.90;;;;;;4959952;28;20043;-76
2021/01/18 00:42:04;;;;;;;35.25;15.77;;;-4.80;99.90;;;;;;4958129;28;20122;-75
2021/01/18 00:44:30;;;;;;;34.80;14.10;;;-4.80;99.90;;;;;;4938578;28;20031;-75
2021/01/18 00:46:56;;;;;;;34.17;15.43;;;-4.80;99.90;;;;;;4946473;28;20035;-75
2021/01/18 00:49:22;;;;;;;33.28;14.93;;;-4.80;99.90;;;;;;4955258;28;20038;-75
2021/01/18 00:51:48;;;;;;;39.95;15.55;;;-4.80;99.90;;;;;;4952976;28;20030;-75
2021/01/18 00:54:14;;;;;;;33.67;14.38;;;-4.80;99.90;;;;;;4944448;28;20083;-75
2021/01/18 00:56:49;;;;;;;;;;;-4.80;99.90;;;;;;4971066;28;20045;-75
2021/01/18 00:59:20;;;;;;;32.50;13.73;;;-4.80;99.90;;;;;;4963448;28;19914;-75
2021/01/18 01:01:50;;;;;;;36.47;15.02;;;-4.80;99.90;;;;;;4963504;28;20035;-75
2021/01/18 01:04:17;;;;;;;37.53;15.90;;;-4.70;99.90;;;;;;4962306;28;20031;-75
2021/01/18 01:06:43;;;;;;;36.88;16.48;;;-4.70;99.90;;;;;;4960292;28;20053;-73
2021/01/18 01:09:08;;;;;;;39.10;16.15;;;-4.80;99.90;;;;;;4956437;28;20498;-75
2021/01/18 01:11:34;;;;;;;31.42;14.07;;;-4.80;99.90;;;;;;4965901;28;20043;-75
2021/01/18 01:14:00;;;;;;;36.08;15.60;;;-4.80;99.90;;;;;;4959290;28;20043;-75
2021/01/18 01:16:25;;;;;;;35.67;15.15;;;-4.70;99.90;;;;;;4951480;28;20041;-75
2021/01/18 01:18:51;;;;;;;34.85;15.25;;;-4.70;99.90;;;;;;4956352;28;20038;-75
2021/01/18 01:21:17;;;;;;;44.35;15.15;;;-4.70;99.90;;;;;;4951479;28;20038;-75
2021/01/18 01:23:42;;;;;;;32.53;15.10;;;-4.70;99.90;;;;;;4947092;28;20038;-75
2021/01/18 01:26:08;;;;;;;32.08;14.68;;;-4.60;99.90;;;;;;4950982;28;20896;-75
2021/01/18 01:28:34;;;;;;;33.42;14.77;;;-4.60;99.90;;;;;;4945464;28;20097;-75
2021/01/18 01:30:59;;;;;;;41.05;15.57;;;-4.60;99.90;;;;;;4955108;28;20043;-75
2021/01/18 01:33:26;;;;;;;32.75;14.68;;;-4.50;99.90;;;;;;4939782;28;20035;-73
2021/01/18 01:35:51;;;;;;;38.88;16.27;;;-4.50;99.90;;;;;;4957383;28;20062;-73
2021/01/18 01:38:17;;;;;;;38.67;15.30;;;-4.40;99.90;;;;;;4961877;28;20866;-73
2021/01/18 01:40:43;;;;;;;38.33;15.95;;;-4.40;99.90;;;;;;4947820;28;20388;-73
2021/01/18 01:43:08;;;;;;;34.20;15.05;;;-4.30;99.90;;;;;;4950697;28;20042;-73
2021/01/18 01:45:34;;;;;;;36.90;15.32;;;-4.30;99.90;;;;;;4962692;28;20201;-73
2021/01/18 01:48:00;;;;;;;35.05;15.05;;;-4.20;99.90;;;;;;4973503;28;20027;-73
2021/01/18 01:50:36;;;;;;;31.05;14.15;;;-4.30;99.90;;;;;;4948090;28;20035;-75
2021/01/18 01:53:16;;;;;;;32.53;14.32;;;-4.30;99.90;;;;;;4951038;28;20053;-75
2021/01/18 01:55:42;;;;;;;29.65;13.77;;;-4.30;99.90;;;;;;4943070;28;20106;-75
2021/01/18 01:58:09;;;;;;;33.97;14.13;;;-4.20;99.90;;;;;;4948291;28;20081;-75
2021/01/18 02:00:39;;;;;;;32.85;14.07;;;-4.20;99.90;;;;;;4949674;28;20038;-75
2021/01/18 02:03:07;;;;;;;31.17;14.57;;;-4.20;99.90;;;;;;4941818;28;20127;-75
2021/01/18 02:05:33;;;;;;;34.55;13.75;;;-4.10;99.90;;;;;;4962011;28;20034;-75
2021/01/18 02:08:04;;;;;;;32.83;14.77;;;-4.10;99.90;;;;;;4959113;28;20037;-75
2021/01/18 02:10:30;;;;;;;33.83;14.55;;;-4.10;99.90;;;;;;4952914;28;20102;-75
2021/01/18 02:13:01;;;;;;;30.55;13.68;;;-4.10;99.90;;;;;;4968583;28;20053;-75
2021/01/18 02:15:36;;;;;;;30.23;14.25;;;-4.10;99.90;;;;;;4951196;28;20030;-76
2021/01/18 02:18:33;;;;;;;30.50;13.65;;;-4.00;99.90;;;;;;4969337;28;20089;-75
2021/01/18 02:21:21;;;;;;;29.50;13.27;;;-4.10;99.90;;;;;;4958763;28;20046;-75
2021/01/18 02:24:15;;;;;;;29.60;13.48;;;-4.10;99.90;;;;;;4969655;28;20936;-74
2021/01/18 02:27:18;;;;;;;28.98;13.48;;;-4.10;99.90;;;;;;4949180;28;20037;-74
2021/01/18 02:30:05;;;;;;;35.63;13.80;;;-4.10;99.90;;;;;;4938090;29;20035;-74
2021/01/18 02:32:53;;;;;;;29.23;13.50;;;-4.00;99.90;;;;;;4942327;28;20028;-74
2021/01/18 02:35:45;;;;;;;35.22;13.60;;;-4.00;99.90;;;;;;4945348;28;20085;-75
2021/01/18 02:38:18;;;;;;;29.67;14.10;;;-4.00;99.90;;;;;;4973716;28;20053;-74
2021/01/18 02:40:59;;;;;;;36.78;14.85;;;-4.00;99.90;;;;;;4969388;28;20048;-75
2021/01/18 02:43:39;;;;;;;29.40;12.77;;;-3.90;99.90;;;;;;4968524;28;20470;-74
2021/01/18 02:46:07;;;;;;;29.88;13.63;;;-3.80;99.90;;;;;;4944985;28;20035;-74
2021/01/18 02:48:33;;;;;;;32.55;14.38;;;-3.90;99.90;;;;;;4948873;28;20047;-74
2021/01/18 02:51:05;;;;;;;29.77;14.00;;;-3.80;99.90;;;;;;4954602;28;20959;-75
2021/01/18 02:53:31;;;;;;;30.70;13.65;;;-3.80;99.90;;;;;;4959850;28;20042;-75
2021/01/18 02:55:57;;;;;;;31.02;13.30;;;-3.90;99.90;;;;;;4945569;28;20094;-74
2021/01/18 02:58:24;;;;;;;33.00;13.50;;;-3.90;99.90;;;;;;4943339;29;20037;-74
2021/01/18 03:01:08;;;;;;;31.65;13.52;;;-3.80;99.90;;;;;;4949654;28;20038;-75
2021/01/18 03:03:34;;;;;;;28.05;13.35;;;-3.80;99.90;;;;;;4957177;28;20038;-75
2021/01/18 03:06:18;;;;;;;28.48;12.82;;;-3.80;99.90;;;;;;4957470;28;20038;-75
2021/01/18 03:08:49;;;;;;;27.95;13.25;;;-3.70;99.90;;;;;;4976931;28;20774;-75
2021/01/18 03:11:26;;;;;;;26.70;12.50;;;-3.70;99.90;;;;;;4960536;28;20046;-75
2021/01/18 03:14:07;;;;;;;28.90;13.43;;;-3.70;99.90;;;;;;4962084;28;20718;-75
2021/01/18 03:16:38;;;;;;;31.42;13.32;;;-3.70;99.90;;;;;;4971144;28;20039;-75
2021/01/18 03:19:06;;;;;;;29.60;14.23;;;-3.70;99.90;;;;;;4954806;28;20035;-75
2021/01/18 03:21:32;;;;;;;31.15;14.65;;;-3.70;99.90;;;;;;4958015;28;20039;-75
2021/01/18 03:23:58;;;;;;;27.77;12.90;;;-3.70;99.90;;;;;;4948463;28;20090;-75
2021/01/18 03:26:28;;;;;;;31.15;14.15;;;-3.70;99.90;;;;;;4949937;28;20555;-75
2021/01/18 03:28:54;;;;;;;30.85;12.80;;;-3.70;99.90;;;;;;4944472;28;20081;-75
2021/01/18 03:31:21;;;;;;;32.88;14.30;;;-3.70;99.90;;;;;;4968682;28;20058;-75
2021/01/18 03:33:47;;;;;;;35.83;14.57;;;-3.60;99.90;;;;;;4964231;28;20046;-75
2021/01/18 03:36:13;;;;;;;31.55;14.35;;;-3.60;99.90;;;;;;4951259;28;20412;-75
2021/01/18 03:38:39;;;;;;;32.72;14.15;;;-3.60;99.90;;;;;;4959938;28;20093;-75
2021/01/18 03:41:05;;;;;;;30.50;13.80;;;-3.60;99.90;;;;;;4960119;28;20411;-75
2021/01/18 03:43:30;;;;;;;31.15;14.27;;;-3.60;99.90;;;;;;4962273;28;20031;-74
2021/01/18 03:45:56;;;;;;;30.52;13.45;;;-3.60;99.90;;;;;;4970256;28;20027;-74
2021/01/18 03:48:22;;;;;;;29.00;13.60;;;-3.60;99.90;;;;;;4956221;28;20039;-74
2021/01/18 03:50:49;;;;;;;31.42;14.00;;;-3.60;99.90;;;;;;4950306;28;20048;-74
2021/01/18 03:53:15;;;;;;;33.58;14.20;;;-3.50;99.90;;;;;;4948906;28;20043;-74
2021/01/18 03:55:41;;;;;;;32.78;14.65;;;-3.50;99.90;;;;;;4947205;28;20043;-74
2021/01/18 03:58:07;;;;;;;34.28;15.10;;;-3.40;99.90;;;;;;4961302;28;20034;-74
2021/01/18 04:00:34;;;;;;;34.45;14.48;;;-3.40;99.90;;;;;;4952239;28;20046;-75
2021/01/18 04:03:01;;;;;;;28.00;13.20;;;-3.40;99.90;;;;;;4954283;28;20073;-74
2021/01/18 04:05:27;;;;;;;32.42;14.55;;;-3.50;99.90;;;;;;4954721;28;20340;-74
2021/01/18 04:07:54;;;;;;;29.88;13.55;;;-3.50;99.90;;;;;;4956428;28;20799;-75
2021/01/18 04:10:24;;;;;;;30.63;13.77;;;-3.50;99.90;;;;;;4941913;28;20479;-74
2021/01/18 04:12:51;;;;;;;28.92;13.50;;;-3.50;99.90;;;;;;4953327;28;20125;-74
2021/01/18 04:15:20;;;;;;;29.02;13.93;;;-3.50;99.90;;;;;;4959754;28;20043;-74
2021/01/18 04:17:51;;;;;;;32.78;14.38;;;-3.50;99.90;;;;;;4945894;28;20141;-74
2021/01/18 04:20:18;;;;;;;29.77;14.13;;;-3.50;99.90;;;;;;4964186;28;20035;-74
2021/01/18 04:22:45;;;;;;;34.45;15.30;;;-3.60;99.90;;;;;;4944615;28;20624;-74
2021/01/18 04:25:11;;;;;;;32.55;14.10;;;-3.60;99.90;;;;;;4965387;28;20035;-74
2021/01/18 04:27:37;;;;;;;35.22;14.85;;;-3.60;99.90;;;;;;4957367;28;20565;-74
2021/01/18 04:30:06;;;;;;;32.67;14.98;;;-3.60;99.90;;;;;;4947948;28;20041;-74
2021/01/18 04:32:31;;;;;;;32.40;13.95;;;-3.60;99.90;;;;;;4947545;28;20042;-74
2021/01/18 04:34:57;;;;;;;30.67;14.07;;;-3.50;99.90;;;;;;4951921;28;20035;-74
2021/01/18 04:37:23;;;;;;;32.30;14.15;;;-3.50;99.90;;;;;;4947343;28;20046;-74
2021/01/18 04:39:48;;;;;;;32.30;14.77;;;-3.50;99.90;;;;;;4955465;28;20046;-75
2021/01/18 04:42:14;;;;;;;29.42;13.90;;;-3.50;99.90;;;;;;4943119;28;20043;-74
2021/01/18 04:44:40;;;;;;;30.98;14.18;;;-3.50;99.90;;;;;;4944679;28;20034;-74
2021/01/18 04:47:13;;;;;;;31.95;14.68;;;-3.40;99.90;;;;;;4944202;28;20042;-75
2021/01/18 04:49:40;;;;;;;30.33;14.07;;;-3.40;99.90;;;;;;4959352;28;20039;-74
2021/01/18 04:52:16;;;;;;;30.15;14.25;;;-3.40;99.90;;;;;;4946879;28;20070;-75
2021/01/18 04:54:46;;;;;;;30.10;14.30;;;-3.40;99.90;;;;;;4960914;28;20828;-74
2021/01/18 04:57:14;;;;;;;29.13;13.88;;;-3.40;99.90;;;;;;4949744;28;20035;-75
2021/01/18 04:59:44;;;;;;;31.95;15.13;;;-3.30;99.90;;;;;;4960645;28;20118;-74
2021/01/18 05:02:21;;;;;;;31.73;14.23;;;-3.30;99.90;;;;;;4949466;28;20134;-74
2021/01/18 05:04:49;;;;;;;28.88;13.65;;;-3.30;99.90;;;;;;4968223;28;20039;-75
2021/01/18 05:07:21;;;;;;;32.08;14.85;;;-3.30;99.90;;;;;;4954461;28;20027;-74
2021/01/18 05:09:55;;;;;;;33.70;14.32;;;-3.30;99.90;;;;;;4962995;28;20510;-75
2021/01/18 05:12:21;;;;;;;21.38;10.38;;;-3.30;99.90;;;;;;4952464;28;20577;-74
2021/01/18 05:14:48;;;;;;;31.75;14.60;;;-3.30;99.90;;;;;;4949224;28;20054;-74
2021/01/18 05:17:33;;;;;;;30.90;14.02;;;-3.20;99.90;;;;;;4951057;28;20050;-75
2021/01/18 05:20:01;;;;;;;35.78;14.85;;;-3.20;99.90;;;;;;4945870;28;20480;-75
2021/01/18 05:22:27;;;;;;;34.80;15.27;;;-3.20;99.90;;;;;;4965591;28;20046;-74
2021/01/18 05:24:53;;;;;;;35.20;16.02;;;-3.20;99.90;;;;;;4948141;28;20043;-74
2021/01/18 05:27:19;;;;;;;32.80;14.98;;;-3.20;99.90;;;;;;4943898;28;20027;-74
2021/01/18 05:29:45;;;;;;;28.60;14.55;;;-3.20;99.90;;;;;;4968918;28;20031;-74
2021/01/18 05:32:23;;;;;;;31.55;14.98;;;-3.20;99.90;;;;;;4942486;28;20494;-74
2021/01/18 05:34:48;;;;;;;29.42;14.32;;;-3.00;99.90;;;;;;4951173;28;20097;-74
2021/01/18 05:37:14;;;;;;;35.05;15.75;;;-3.00;99.90;;;;;;4965501;28;20038;-75
2021/01/18 05:39:40;;;;;;;32.80;15.32;;;-2.90;99.90;;;;;;4947230;28;20164;-74
2021/01/18 05:42:21;;;;;;;31.88;14.32;;;-2.90;99.90;;;;;;4962808;28;20034;-74
2021/01/18 05:44:47;;;;;;;33.47;16.20;;;-3.00;99.90;;;;;;4962205;28;20038;-75
2021/01/18 05:47:15;;;;;;;35.55;15.80;;;-3.10;99.90;;;;;;4955311;28;20027;-74
2021/01/18 05:49:49;;;;;;;35.55;16.05;;;-3.20;99.90;;;;;;4965920;28;20046;-74
2021/01/18 05:52:31;;;;;;;33.60;15.38;;;-3.20;99.90;;;;;;4956632;28;20053;-74
2021/01/18 05:55:17;;;;;;;36.13;15.70;;;-3.20;99.90;;;;;;4943805;28;20043;-74
2021/01/18 05:57:57;;;;;;;32.78;16.15;;;-3.20;99.90;;;;;;4954151;28;20102;-74
2021/01/18 06:00:31;;;;;;;35.60;16.10;;;-3.10;99.90;;;;;;4948335;28;20602;-74
2021/01/18 06:02:59;;;;;;;33.30;15.43;;;-3.00;99.90;;;;;;4967690;28;20122;-74
2021/01/18 06:05:33;;;;;;;36.85;16.10;;;-3.00;99.90;;;;;;4957194;28;20047;-74
2021/01/18 06:08:18;;;;;;;39.55;17.58;;;-3.00;99.90;;;;;;4943317;28;20031;-74
2021/01/18 06:10:45;;;;;;;;;;;-3.00;99.90;;;;;;4956263;28;20118;-74
2021/01/18 06:13:18;;;;;;;37.58;17.35;;;-3.10;99.90;;;;;;4949041;28;19958;-75
2021/01/18 06:15:44;;;;;;;45.05;20.55;;;-3.00;99.90;;;;;;4957889;28;20086;-75
2021/01/18 06:18:14;;;;;;;35.85;15.70;;;-3.00;99.90;;;;;;4957518;28;20067;-74
2021/01/18 06:20:42;;;;;;;36.88;16.08;;;-3.00;99.90;;;;;;4959078;28;20042;-74
2021/01/18 06:23:08;;;;;;;40.55;17.17;;;-2.90;99.90;;;;;;4953500;28;20035;-74
2021/01/18 06:25:39;;;;;;;42.10;19.48;;;-3.00;99.90;;;;;;4977827;28;20760;-75
2021/01/18 06:28:26;;;;;;;37.20;18.08;;;-3.10;99.90;;;;;;4953941;28;20126;-74
2021/01/18 06:31:00;;;;;;;44.88;20.20;;;-3.00;99.90;;;;;;4951800;28;20766;-75
2021/01/18 06:33:39;;;;;;;42.20;18.67;;;-3.00;99.90;;;;;;4952595;28;20035;-75
2021/01/18 06:36:14;;;;;;;39.72;17.83;;;-3.00;99.90;;;;;;4961698;28;20034;-75
2021/01/18 06:38:50;;;;;;;39.97;17.45;;;-3.00;99.90;;;;;;4957913;28;20038;-75
2021/01/18 06:41:26;;;;;;;37.45;18.10;;;-2.90;99.90;;;;;;4961164;28;20034;-74
2021/01/18 06:43:51;;;;;;;;;;;-2.80;99.90;;;;;;4955062;28;20033;-75
2021/01/18 06:46:20;;;;;;;40.55;18.52;;;-2.80;99.90;;;;;;4951604;28;19914;-75
2021/01/18 06:48:48;;;;;;;39.55;17.65;;;-2.90;99.90;;;;;;4970512;28;20035;-74
2021/01/18 06:51:16;;;;;;;38.78;18.08;;;-2.90;99.90;;;;;;4957473;28;20121;-74
2021/01/18 06:53:44;;;;;;;38.97;18.17;;;-2.80;99.90;;;;;;4960881;28;20077;-73
2021/01/18 06:56:21;;;;;;;39.45;19.00;;;-2.80;99.90;;;;;;4954263;28;20035;-74
2021/01/18 06:59:07;;;;;;;44.30;20.15;;;-2.80;99.90;;;;;;4955977;28;20142;-74
2021/01/18 07:01:40;;;;;;;44.35;20.95;;;-2.80;99.90;;;;;;4956900;28;20861;-74
2021/01/18 07:04:10;;;;;;;51.50;21.35;;;-2.80;99.90;;;;;;4953694;28;20030;-74
2021/01/18 07:06:38;;;;;;;51.33;22.05;;;-2.80;99.90;;;;;;4960553;28;20122;-75
2021/01/18 07:09:07;;;;;;;49.70;22.80;;;-2.80;99.90;;;;;;4953032;28;20038;-75
2021/01/18 07:11:33;;;;;;;48.47;21.98;;;-2.90;99.90;;;;;;4962317;28;20399;-75
2021/01/18 07:14:04;;;;;;;47.55;22.38;;;-2.90;99.90;;;;;;4952082;28;20074;-75
2021/01/18 07:16:30;;;;;;;46.80;22.98;;;-2.90;99.90;;;;;;4957134;28;20035;-75
2021/01/18 07:18:57;;;;;;;52.10;23.10;;;-2.90;99.90;;;;;;4951932;28;20491;-76
2021/01/18 07:21:27;;;;;;;51.42;24.15;;;-2.90;99.90;;;;;;4948281;28;20077;-75
2021/01/18 07:24:00;;;;;;;55.13;24.63;;;-2.90;99.90;;;;;;4953153;28;20387;-75
2021/01/18 07:27:06;;;;;;;50.65;23.38;;;-2.90;99.90;;;;;;4958481;28;20034;-75
2021/01/18 07:29:32;;;;;;;50.97;22.80;;;-2.90;99.90;;;;;;4956827;28;20037;-75
2021/01/18 07:31:59;;;;;;;49.05;23.63;;;-2.90;99.90;;;;;;4956028;28;20769;-75
2021/01/18 07:34:27;;;;;;;52.03;23.23;;;-3.00;99.90;;;;;;4950392;28;20165;-75
2021/01/18 07:37:05;;;;;;;54.80;22.95;;;-2.90;99.90;;;;;;4948510;28;20042;-75
2021/01/18 07:39:38;;;;;;;47.03;22.05;;;-2.90;99.90;;;;;;4966433;28;20573;-75
2021/01/18 07:42:05;;;;;;;49.08;21.92;;;-2.90;99.90;;;;;;4959846;28;20057;-75
2021/01/18 07:44:37;;;;;;;51.55;22.52;;;-2.90;99.90;;;;;;4952660;28;20027;-74
2021/01/18 07:47:05;;;;;;;44.35;21.65;;;-2.90;99.90;;;;;;4970362;28;20134;-75
2021/01/18 07:49:34;;;;;;;47.58;22.83;;;-2.80;99.90;;;;;;4961557;28;20038;-74
2021/01/18 07:52:28;;;;;;;48.22;23.17;;;-2.80;99.90;;;;;;4959217;28;20129;-75
2021/01/18 07:54:56;;;;;;;49.05;23.58;;;-2.80;99.90;;;;;;4950957;28;20106;-75
2021/01/18 07:57:38;;;;;;;49.80;24.23;;;-2.70;99.90;;;;;;4955834;28;20031;-74
2021/01/18 08:00:19;;;;;;;95.53;51.17;;;-2.70;99.90;;;;;;4955571;28;20037;-74
2021/01/18 08:02:47;;;;;;;91.65;49.72;;;-2.70;99.90;;;;;;4954208;28;20035;-75
2021/01/18 08:05:34;;;;;;;98.22;47.97;;;-2.70;99.90;;;;;;4952156;28;20031;-75
2021/01/18 08:08:08;;;;;;;70.90;33.28;;;-2.70;99.90;;;;;;4959936;28;20035;-75
2021/01/18 08:11:02;;;;;;;55.03;26.15;;;-2.70;99.90;;;;;;4958563;28;20035;-75
2021/01/18 08:13:31;;;;;;;59.03;25.75;;;-2.60;99.90;;;;;;4966864;28;20129;-75
2021/01/18 08:15:58;;;;;;;57.95;25.98;;;-2.60;99.90;;;;;;4955276;28;20558;-75
2021/01/18 08:18:30;;;;;;;54.70;25.75;;;-2.50;99.90;;;;;;4956223;28;20039;-75
2021/01/18 08:20:56;;;;;;;51.33;25.10;;;-2.50;99.90;;;;;;4959338;28;20189;-75
2021/01/18 08:23:44;;;;;;;53.85;24.35;;;-2.50;99.90;;;;;;4958883;28;20054;-75
2021/01/18 08:26:10;;;;;;;52.60;24.95;;;-2.50;99.90;;;;;;4960476;28;20154;-75
2021/01/18 08:28:36;;;;;;;54.30;25.15;;;-2.40;99.90;;;;;;4953273;28;20114;-75
2021/01/18 08:31:02;;;;;;;55.38;25.77;;;-2.30;99.90;;;;;;4952020;28;20086;-75
2021/01/18 08:33:28;;;;;;;53.90;25.92;;;-2.20;99.90;;;;;;4969168;28;20030;-75
2021/01/18 08:35:57;;;;;;;58.90;26.92;;;-2.20;99.90;;;;;;4953932;28;20771;-75
2021/01/18 08:38:30;;;;;;;56.63;25.30;;;-2.10;99.90;;;;;;4957662;28;20043;-75
2021/01/18 08:41:08;;;;;;;56.28;24.73;;;-2.10;99.90;;;;;;4945566;28;20035;-75
2021/01/18 08:43:52;;;;;;;54.67;25.10;;;-2.00;99.90;;;;;;4975275;28;20039;-75
2021/01/18 08:46:39;;;;;;;51.15;23.60;;;-1.90;99.90;;;;;;4956684;28;20414;-75
2021/01/18 08:49:31;;;;;;;52.97;24.58;;;-1.90;99.90;;;;;;4951046;28;20035;-75
2021/01/18 08:51:58;;;;;;;49.15;23.45;;;-1.90;99.90;;;;;;4964363;28;20534;-75
2021/01/18 08:54:37;;;;;;;55.55;25.23;;;-1.80;99.90;;;;;;4946714;28;20787;-75
2021/01/18 08:57:25;;;;;;;55.22;25.45;;;-1.80;99.90;;;;;;4943229;28;20117;-75
2021/01/18 09:00:07;;;;;;;52.70;25.48;;;-1.70;99.90;;;;;;4987050;28;20042;-75
2021/01/18 09:02:33;;;;;;;56.30;26.40;;;-1.70;99.90;;;;;;4958267;28;20101;-75
2021/01/18 09:05:21;;;;;;;55.55;25.67;;;-1.70;99.90;;;;;;4952759;28;20746;-75
2021/01/18 09:07:49;;;;;;;55.17;25.83;;;-1.70;99.90;;;;;;4970527;28;20050;-75
2021/01/18 09:10:22;;;;;;;55.38;24.88;;;-1.50;99.90;;;;;;4954278;28;20027;-76
2021/01/18 09:12:50;;;;;;;59.38;26.98;;;-1.60;99.90;;;;;;4972351;28;20051;-75
2021/01/18 09:15:20;;;;;;;56.70;26.88;;;-1.50;99.90;;;;;;4972289;28;20114;-76
2021/01/18 09:17:49;;;;;;;57.13;25.33;;;-1.40;99.90;;;;;;4950120;28;20101;-75
2021/01/18 09:20:16;;;;;;;54.95;26.08;;;-1.30;99.90;;;;;;4957629;28;20746;-75
2021/01/18 09:22:45;;;;;;;55.42;25.63;;;-1.30;99.90;;;;;;4959567;28;20045;-78
2021/01/18 09:25:13;;;;;;;53.97;25.15;;;-1.00;99.90;;;;;;4957388;28;20026;-76
2021/01/18 09:27:39;;;;;;;55.63;25.90;;;-0.70;99.90;;;;;;4964493;28;20027;-76
2021/01/18 09:30:07;;;;;;;54.42;24.90;;;-0.80;99.90;;;;;;4948880;28;20486;-76
2021/01/18 09:32:33;;;;;;;51.03;24.02;;;-0.60;99.90;;;;;;4951501;28;20214;-77
2021/01/18 09:35:06;;;;;;;50.95;24.55;;;-0.50;99.90;;;;;;4953619;28;20055;-77
2021/01/18 09:37:32;;;;;;;56.00;26.17;;;-0.30;99.90;;;;;;4957612;28;20069;-75
2021/01/18 09:40:02;;;;;;;57.47;27.33;;;-0.30;99.90;;;;;;4971230;28;20110;-75
2021/01/18 09:42:30;;;;;;;55.25;25.60;;;-0.40;99.90;;;;;;4941444;28;20046;-76
2021/01/18 09:44:56;;;;;;;58.70;25.95;;;-0.40;99.90;;;;;;4966642;28;20035;-76
2021/01/18 09:47:24;;;;;;;57.33;27.60;;;-0.50;99.90;;;;;;4972747;28;20037;-76
2021/01/18 09:49:49;;;;;;;56.45;27.13;;;-0.40;99.90;;;;;;4961216;28;20104;-76
2021/01/18 09:52:15;;;;;;;57.08;25.15;;;-0.30;99.90;;;;;;4963809;28;20047;-75
2021/01/18 09:54:46;;;;;;;52.95;26.17;;;-0.30;99.90;;;;;;4956684;28;20035;-75
2021/01/18 09:57:14;;;;;;;61.60;28.15;;;-0.40;99.90;;;;;;4950822;28;20883;-75
2021/01/18 09:59:42;;;;;;;55.75;26.92;;;-0.40;99.90;;;;;;4959023;28;20781;-80
2021/01/18 10:02:13;;;;;;;61.30;27.75;;;-0.20;99.90;;;;;;4941059;28;20133;-76
2021/01/18 10:04:40;;;;;;;54.38;25.83;;;-0.10;99.90;;;;;;4960206;28;20053;-76
2021/01/18 10:07:09;;;;;;;61.28;28.13;;;-0.20;99.90;;;;;;4973461;28;20038;-76
2021/01/18 10:09:35;;;;;;;66.95;31.13;;;-0.10;99.90;;;;;;4956057;28;20134;-76
2021/01/18 10:12:04;;;;;;;59.38;29.25;;;0.20;99.90;;;;;;4939682;28;20142;-75
2021/01/18 10:14:30;;;;;;;52.08;26.38;;;0.20;99.90;;;;;;4953363;28;20046;-75
2021/01/18 10:17:03;;;;;;;55.67;26.60;;;0.30;99.90;;;;;;4945383;28;20043;-74
2021/01/18 10:19:30;;;;;;;53.00;25.35;;;0.30;99.90;;;;;;4945964;28;20042;-75
2021/01/18 10:21:57;;;;;;;56.63;26.35;;;0.20;99.90;;;;;;4943358;28;20046;-75
2021/01/18 10:24:35;;;;;;;53.47;25.50;;;0.30;99.90;;;;;;4955080;28;20038;-75
2021/01/18 10:27:06;;;;;;;56.50;25.73;;;0.10;99.90;;;;;;4950078;28;20113;-75
2021/01/18 10:29:32;;;;;;;54.28;26.67;;;0.20;99.90;;;;;;4950285;28;20030;-75
2021/01/18 10:32:00;;;;;;;58.25;26.27;;;0.20;99.90;;;;;;4957346;28;20038;-75
2021/01/18 10:34:29;;;;;;;54.70;26.05;;;0.10;99.90;;;;;;4964055;28;20110;-79
2021/01/18 10:36:57;;;;;;;54.72;26.13;;;0.10;99.90;;;;;;4973651;28;20062;-77
2021/01/18 10:39:32;;;;;;;55.80;25.63;;;0.10;99.90;;;;;;4958973;28;20717;-77
2021/01/18 10:42:10;;;;;;;53.30;25.25;;;0.10;99.90;;;;;;4977084;28;20040;-76
2021/01/18 10:44:48;;;;;;;79.05;33.55;;;0.20;99.90;;;;;;4950453;28;20031;-77
2021/01/18 10:47:14;;;;;;;63.97;28.38;;;0.20;99.90;;;;;;4946196;28;20042;-76
2021/01/18 10:49:40;;;;;;;77.35;36.90;;;0.30;99.90;;;;;;4944023;28;20774;-78
2021/01/18 10:52:08;;;;;;;58.08;27.63;;;0.30;99.90;;;;;;4952999;28;20049;-74
2021/01/18 10:54:35;;;;;;;57.85;26.60;;;0.40;99.90;;;;;;4949670;28;20072;-73
2021/01/18 10:57:01;;;;;;;54.10;25.73;;;0.50;99.90;;;;;;4950162;28;20038;-74
2021/01/18 10:59:27;;;;;;;59.28;27.33;;;0.50;99.90;;;;;;4952915;28;20034;-74
2021/01/18 11:02:07;;;;;;;59.08;27.83;;;0.30;99.90;;;;;;4954185;28;20070;-74
2021/01/18 11:04:35;;;;;;;60.15;27.63;;;0.30;99.90;;;;;;4953270;28;20035;-74
2021/01/18 11:07:08;;;;;;;68.28;28.75;;;0.30;99.90;;;;;;4950246;28;20054;-74
2021/01/18 11:09:34;;;;;;;64.40;28.17;;;0.30;99.90;;;;;;4952243;28;20038;-74
2021/01/18 11:12:01;;;;;;;74.38;30.20;;;0.30;99.90;;;;;;4959614;28;20050;-74
2021/01/18 11:14:29;;;;;;;75.43;30.38;;;0.40;99.90;;;;;;4953083;28;20169;-73
2021/01/18 11:17:03;;;;;;;77.63;29.38;;;0.50;99.90;;;;;;4956451;28;20049;-71
2021/01/18 11:19:29;;;;;;;81.30;33.38;;;0.60;99.90;;;;;;4947187;28;20038;-73
2021/01/18 11:21:55;;;;;;;63.08;27.45;;;0.60;99.90;;;;;;4956966;28;20043;-74
2021/01/18 11:24:21;;;;;;;68.53;28.20;;;0.80;99.90;;;;;;4972440;28;20070;-74
2021/01/18 11:26:48;;;;;;;70.57;29.30;;;0.90;99.90;;;;;;4960230;28;20031;-74
2021/01/18 11:29:14;;;;;;;67.55;27.70;;;0.90;99.90;;;;;;4954414;28;20042;-74
2021/01/18 11:31:40;;;;;;;74.55;29.30;;;0.90;99.90;;;;;;4956492;28;20058;-74
2021/01/18 11:34:06;;;;;;;70.60;28.20;;;0.90;99.90;;;;;;4960722;28;20027;-74
2021/01/18 11:36:32;;;;;;;71.15;28.08;;;0.90;99.90;;;;;;4967613;28;20043;-74
2021/01/18 11:38:58;;;;;;;69.25;27.40;;;0.90;99.90;;;;;;4955621;28;20030;-74
2021/01/18 11:41:23;;;;;;;65.13;28.52;;;1.00;99.90;;;;;;4960871;28;20094;-74
2021/01/18 11:43:49;;;;;;;70.47;28.23;;;1.10;99.90;;;;;;4974001;28;20763;-74
2021/01/18 11:46:16;;;;;;;64.70;27.30;;;1.10;99.90;;;;;;4957565;28;20035;-74
2021/01/18 11:48:42;;;;;;;66.90;28.25;;;1.20;99.90;;;;;;4955986;28;20077;-74
2021/01/18 11:51:08;;;;;;;64.32;26.85;;;1.30;99.90;;;;;;4959813;28;20704;-74
2021/01/18 11:53:34;;;;;;;68.70;26.50;;;1.30;99.90;;;;;;4956876;28;20049;-75
2021/01/18 11:55:59;;;;;;;68.57;28.30;;;1.30;99.90;;;;;;4954952;28;20101;-74
2021/01/18 11:58:25;;;;;;;65.13;27.67;;;1.40;99.90;;;;;;4956219;28;20054;-75
2021/01/18 12:00:51;;;;;;;76.93;29.50;;;1.40;99.90;;;;;;4973240;28;20038;-75
2021/01/18 12:03:16;;;;;;;68.90;29.50;;;1.60;99.90;;;;;;4956771;28;20042;-72
2021/01/18 12:05:42;;;;;;;66.80;27.40;;;1.50;99.90;;;;;;4957531;28;20050;-74
2021/01/18 12:08:08;;;;;;;66.45;25.50;;;1.60;99.90;;;;;;4957171;28;20113;-73
2021/01/18 12:10:35;;;;;;;70.57;27.45;;;1.80;99.90;;;;;;4952591;28;20597;-74
2021/01/18 12:13:05;;;;;;;66.05;29.45;;;1.90;99.90;;;;;;4968158;28;20043;-73
2021/01/18 12:15:31;;;;;;;82.82;29.38;;;1.80;99.90;;;;;;4949797;28;20062;-73
2021/01/18 12:17:57;;;;;;;74.72;28.92;;;1.70;99.90;;;;;;4950759;28;20511;-74
2021/01/18 12:20:22;;;;;;;65.97;27.73;;;1.90;99.90;;;;;;4948133;28;20130;-73
2021/01/18 12:22:52;;;;;;;74.55;29.75;;;2.00;99.90;;;;;;4953559;28;20038;-73
2021/01/18 12:25:19;;;;;;;72.30;28.33;;;2.20;99.90;;;;;;4958560;28;20034;-73
2021/01/18 12:27:52;;;;;;;76.15;32.28;;;2.30;99.90;;;;;;4958250;28;20034;-73
2021/01/18 12:30:19;;;;;;;72.65;27.33;;;2.40;99.90;;;;;;4958654;28;20577;-74
2021/01/18 12:32:44;;;;;;;73.70;26.88;;;2.20;99.90;;;;;;4954696;28;20035;-74
2021/01/18 12:35:11;;;;;;;70.43;26.30;;;2.30;99.90;;;;;;4954923;28;20584;-74
2021/01/18 12:37:37;;;;;;;69.35;26.35;;;2.20;99.90;;;;;;4952254;28;20046;-74
2021/01/18 12:40:05;;;;;;;56.15;23.30;;;2.30;99.90;;;;;;4956685;28;20038;-74
2021/01/18 12:42:31;;;;;;;65.00;24.02;;;2.40;99.90;;;;;;4940267;28;20530;-73
2021/01/18 12:44:56;;;;;;;58.63;24.65;;;2.50;99.90;;;;;;4946161;28;20031;-73